Time;durP1;ratioP1;P1;durP2;ratioP2;P2;SDS_P1;SDS_P2;PMS_P1;PMS_P2;Temp;Humidity;BMP_temperature;BMP_pressure;BME280_temperature;BME280_humidity;BME280_pressure;Samples;Min_cycle;Max_cycle;Signal;HPM_P1;HPM_P2
2024/02/29 00:01:57;;;;;;;17.43;7.63;;;5.40;99.90;;;;;;4973090;28;20027;-50
2024/02/29 00:04:28;;;;;;;20.73;7.10;;;5.30;99.90;;;;;;4973253;28;20041;-50
2024/02/29 00:06:57;;;;;;;20.90;6.87;;;5.30;99.90;;;;;;4973239;28;20039;-51
2024/02/29 00:09:23;;;;;;;18.48;7.82;;;5.30;99.90;;;;;;4971998;28;20404;-53
2024/02/29 00:11:51;;;;;;;17.63;6.40;;;5.40;99.90;;;;;;4972985;28;20046;-49
2024/02/29 00:14:18;;;;;;;18.60;7.90;;;5.30;99.90;;;;;;4973058;28;20042;-53
2024/02/29 00:16:44;;;;;;;18.50;7.10;;;5.30;99.90;;;;;;4973047;28;20464;-50
2024/02/29 00:19:13;;;;;;;21.70;6.43;;;5.20;99.90;;;;;;4973335;28;20383;-52
2024/02/29 00:21:39;;;;;;;15.77;7.03;;;5.20;99.90;;;;;;4973012;28;20030;-53
2024/02/29 00:24:05;;;;;;;14.67;5.50;;;5.30;99.90;;;;;;4973004;28;20487;-51
2024/02/29 00:26:31;;;;;;;16.43;6.60;;;5.30;99.90;;;;;;4972991;28;20031;-52
2024/02/29 00:28:56;;;;;;;17.47;6.80;;;5.30;99.90;;;;;;4973000;28;20037;-51
2024/02/29 00:31:24;;;;;;;11.20;5.70;;;5.30;99.90;;;;;;4972846;28;20043;-50
2024/02/29 00:33:50;;;;;;;17.20;6.03;;;5.30;99.90;;;;;;4972949;28;20432;-49
2024/02/29 00:36:16;;;;;;;13.80;5.50;;;5.40;99.90;;;;;;4972855;28;20031;-50
2024/02/29 00:38:42;;;;;;;14.37;6.37;;;5.40;99.90;;;;;;4972944;28;20027;-49
2024/02/29 00:41:08;;;;;;;12.90;5.13;;;5.40;99.90;;;;;;4972588;28;20086;-52
2024/02/29 00:43:33;;;;;;;12.37;5.70;;;5.40;99.90;;;;;;4972838;28;20391;-50
2024/02/29 00:45:59;;;;;;;14.47;6.30;;;5.30;99.90;;;;;;4972748;28;20066;-52
2024/02/29 00:48:25;;;;;;;13.77;5.20;;;5.30;99.90;;;;;;4972776;28;20038;-50
2024/02/29 00:50:51;;;;;;;12.90;5.50;;;5.30;99.90;;;;;;4972667;28;20027;-49
2024/02/29 00:53:16;;;;;;;14.57;5.73;;;5.30;99.90;;;;;;4972858;28;20089;-49
2024/02/29 00:55:43;;;;;;;17.60;5.80;;;5.30;99.90;;;;;;4972507;28;20131;-49
2024/02/29 00:58:08;;;;;;;10.97;4.70;;;5.30;99.90;;;;;;4972666;28;20039;-51
2024/02/29 01:00:34;;;;;;;15.10;6.63;;;5.30;99.90;;;;;;4972599;28;20042;-49
2024/02/29 01:03:01;;;;;;;12.23;5.37;;;5.30;99.90;;;;;;4974674;28;20416;-49
2024/02/29 01:05:26;;;;;;;16.23;5.60;;;5.30;99.90;;;;;;4976434;28;20093;-49
2024/02/29 01:07:52;;;;;;;16.13;5.37;;;5.30;99.90;;;;;;4976394;28;20071;-53
2024/02/29 01:10:17;;;;;;;11.97;4.40;;;5.30;99.90;;;;;;4975972;28;20588;-52
2024/02/29 01:12:43;;;;;;;11.87;4.77;;;5.30;99.90;;;;;;4976332;28;20039;-50
2024/02/29 01:15:10;;;;;;;14.17;5.70;;;5.30;99.90;;;;;;4976124;28;20038;-51
2024/02/29 01:17:36;;;;;;;11.73;5.07;;;5.30;99.90;;;;;;4976192;28;20062;-53
2024/02/29 01:20:04;;;;;;;10.77;4.03;;;5.20;99.90;;;;;;4976060;28;20027;-49
2024/02/29 01:22:30;;;;;;;8.52;3.78;;;5.30;99.90;;;;;;4976023;28;20395;-54
2024/02/29 01:24:56;;;;;;;14.47;5.33;;;5.30;99.90;;;;;;4975906;28;20117;-51
2024/02/29 01:27:21;;;;;;;14.87;4.90;;;5.20;99.90;;;;;;4976065;28;20031;-50
2024/02/29 01:29:47;;;;;;;15.63;4.80;;;5.30;99.90;;;;;;4975866;28;20502;-49
2024/02/29 01:32:12;;;;;;;8.87;4.00;;;5.30;99.90;;;;;;4975834;28;20070;-50
2024/02/29 01:34:38;;;;;;;12.00;4.63;;;5.40;99.90;;;;;;4975784;28;20037;-49
2024/02/29 01:37:04;;;;;;;11.83;5.00;;;5.30;99.90;;;;;;4974650;28;20121;-50
2024/02/29 01:39:29;;;;;;;12.47;4.70;;;5.40;99.90;;;;;;4974384;28;20082;-52
2024/02/29 01:41:56;;;;;;;14.43;5.50;;;5.40;99.90;;;;;;4975620;28;20033;-53
2024/02/29 01:44:22;;;;;;;10.50;4.60;;;5.40;99.90;;;;;;4975666;28;20373;-50
2024/02/29 01:46:48;;;;;;;11.30;4.20;;;5.40;99.90;;;;;;4975602;28;20550;-49
2024/02/29 01:49:15;;;;;;;12.37;4.77;;;5.40;99.90;;;;;;4975539;28;20062;-52
2024/02/29 01:51:43;;;;;;;11.60;4.20;;;5.40;99.90;;;;;;4975456;28;20075;-49
2024/02/29 01:54:10;;;;;;;9.90;4.07;;;5.40;99.90;;;;;;4975339;28;20042;-51
2024/02/29 01:56:36;;;;;;;9.27;4.67;;;5.40;99.90;;;;;;4975508;28;20034;-50
2024/02/29 01:59:03;;;;;;;11.73;4.90;;;5.40;99.90;;;;;;4975460;28;20031;-50
2024/02/29 02:01:29;;;;;;;14.63;4.63;;;5.40;99.90;;;;;;4975181;28;20031;-52
2024/02/29 02:03:54;;;;;;;13.57;4.97;;;5.40;99.90;;;;;;4957911;28;20503;-50
2024/02/29 02:06:20;;;;;;;12.73;5.07;;;5.40;99.90;;;;;;4975293;28;20031;-50
2024/02/29 02:08:46;;;;;;;10.80;4.80;;;5.30;99.90;;;;;;4975263;28;20395;-50
2024/02/29 02:11:11;;;;;;;11.13;4.57;;;5.40;99.90;;;;;;4975265;28;20615;-50
2024/02/29 02:13:39;;;;;;;9.13;4.03;;;5.30;99.90;;;;;;4974816;28;20416;-51
2024/02/29 02:16:05;;;;;;;12.93;5.17;;;5.30;99.90;;;;;;4974960;28;20026;-50
2024/02/29 02:18:31;;;;;;;13.77;5.07;;;5.30;99.90;;;;;;4975155;28;20122;-49
2024/02/29 02:20:57;;;;;;;10.17;4.30;;;5.30;99.90;;;;;;4974836;28;20137;-49
2024/02/29 02:23:22;;;;;;;11.77;5.40;;;5.30;99.90;;;;;;4974975;28;20027;-53
2024/02/29 02:25:48;;;;;;;11.67;4.80;;;5.30;99.90;;;;;;4974861;28;20479;-51
2024/02/29 02:28:14;;;;;;;15.00;5.10;;;5.30;99.90;;;;;;4974857;28;20034;-51
2024/02/29 02:30:39;;;;;;;10.33;4.63;;;5.20;99.90;;;;;;4973553;28;20035;-52
2024/02/29 02:33:05;;;;;;;15.87;4.73;;;5.20;99.90;;;;;;4975179;28;20420;-51
2024/02/29 02:35:33;;;;;;;12.87;4.97;;;5.20;99.90;;;;;;4974663;28;20031;-51
2024/02/29 02:38:03;;;;;;;9.47;4.00;;;5.20;99.90;;;;;;4974721;28;20443;-50
2024/02/29 02:40:29;;;;;;;10.77;4.40;;;5.20;99.90;;;;;;4974511;28;20443;-51
2024/02/29 02:42:55;;;;;;;10.70;4.60;;;5.30;99.90;;;;;;4974778;28;20461;-52
2024/02/29 02:45:20;;;;;;;11.17;4.83;;;5.30;99.90;;;;;;4974447;28;20043;-49
2024/02/29 02:47:46;;;;;;;15.20;4.53;;;5.20;99.90;;;;;;4974650;28;20038;-49
2024/02/29 02:50:12;;;;;;;13.13;5.00;;;5.20;99.90;;;;;;4974858;28;20383;-51
2024/02/29 02:52:37;;;;;;;12.00;4.60;;;5.20;99.90;;;;;;4974308;28;20031;-52
2024/02/29 02:55:04;;;;;;;14.00;5.07;;;5.20;99.90;;;;;;4974283;28;20121;-50
2024/02/29 02:57:30;;;;;;;12.67;5.37;;;5.20;99.90;;;;;;4974388;28;20027;-53
2024/02/29 02:59:55;;;;;;;10.40;4.40;;;5.20;99.90;;;;;;4974294;28;20514;-50
2024/02/29 03:02:21;;;;;;;13.17;4.53;;;5.20;99.90;;;;;;4974243;28;20022;-51
2024/02/29 03:04:46;;;;;;;13.67;4.73;;;5.20;99.90;;;;;;4974142;28;20509;-50
2024/02/29 03:07:12;;;;;;;12.63;5.30;;;5.20;99.90;;;;;;4974212;28;20488;-49
2024/02/29 03:09:38;;;;;;;12.07;4.27;;;5.20;99.90;;;;;;4974130;28;20062;-52
2024/02/29 03:12:04;;;;;;;14.27;5.17;;;5.20;99.90;;;;;;4974045;28;20379;-50
2024/02/29 03:14:29;;;;;;;14.80;5.10;;;5.20;99.90;;;;;;4974056;28;20453;-51
2024/02/29 03:16:55;;;;;;;10.47;4.80;;;5.20;99.90;;;;;;4973957;28;20066;-50
2024/02/29 03:19:21;;;;;;;15.10;5.07;;;5.20;99.90;;;;;;4973843;28;20049;-50
2024/02/29 03:21:46;;;;;;;13.93;4.87;;;5.10;99.90;;;;;;4973901;28;20036;-50
2024/02/29 03:24:12;;;;;;;9.17;4.60;;;5.10;99.90;;;;;;4973741;28;20023;-49
2024/02/29 03:26:37;;;;;;;11.57;4.80;;;5.10;99.90;;;;;;4973307;28;20478;-51
2024/02/29 03:29:03;;;;;;;11.80;4.23;;;5.20;99.90;;;;;;4973742;28;20051;-50
2024/02/29 03:31:29;;;;;;;14.77;5.37;;;5.20;99.90;;;;;;4973623;28;20030;-50
2024/02/29 03:33:54;;;;;;;15.47;5.00;;;5.10;99.90;;;;;;4973647;28;20444;-51
2024/02/29 03:36:20;;;;;;;14.20;4.87;;;5.10;99.90;;;;;;4973487;28;20054;-49
2024/02/29 03:38:45;;;;;;;12.33;4.47;;;5.10;99.90;;;;;;4973727;28;20034;-49
2024/02/29 03:41:11;;;;;;;11.80;5.00;;;5.10;99.90;;;;;;4973757;28;20023;-50
2024/02/29 03:43:37;;;;;;;14.73;5.33;;;5.10;99.90;;;;;;4973561;28;20480;-49
2024/02/29 03:46:02;;;;;;;14.60;5.07;;;5.00;99.90;;;;;;4973385;28;20408;-49
2024/02/29 03:48:31;;;;;;;10.80;4.13;;;5.00;99.90;;;;;;4973442;28;20088;-49
2024/02/29 03:50:57;;;;;;;13.70;5.32;;;5.00;99.90;;;;;;4973210;28;20133;-49
2024/02/29 03:53:22;;;;;;;12.60;5.57;;;5.00;99.90;;;;;;4973419;28;20121;-50
2024/02/29 03:55:48;;;;;;;12.40;5.20;;;5.10;99.90;;;;;;4973327;28;20027;-50
2024/02/29 03:58:14;;;;;;;13.07;3.63;;;5.00;99.90;;;;;;4973350;28;20023;-50
2024/02/29 04:00:40;;;;;;;14.07;5.67;;;5.00;99.90;;;;;;4973260;28;20042;-50
2024/02/29 04:03:05;;;;;;;13.70;5.17;;;5.00;99.90;;;;;;4973665;28;20031;-50
2024/02/29 04:05:31;;;;;;;13.20;5.00;;;5.00;99.90;;;;;;4973792;28;20039;-50
2024/02/29 04:08:03;;;;;;;15.57;5.07;;;5.00;99.90;;;;;;4972584;28;20038;-50
2024/02/29 04:10:32;;;;;;;12.87;4.87;;;5.00;99.90;;;;;;4974134;28;20396;-50
2024/02/29 04:12:58;;;;;;;11.75;3.83;;;5.00;99.90;;;;;;4974008;28;20050;-50
2024/02/29 04:15:24;;;;;;;14.93;5.37;;;5.00;99.90;;;;;;4973353;28;20041;-51
2024/02/29 04:17:49;;;;;;;14.57;5.47;;;5.00;99.90;;;;;;4956825;28;20110;-53
2024/02/29 04:20:15;;;;;;;15.00;4.83;;;5.00;99.90;;;;;;4955271;28;20032;-50
2024/02/29 04:22:41;;;;;;;12.83;5.43;;;5.00;99.90;;;;;;4955760;28;20023;-50
2024/02/29 04:25:10;;;;;;;16.87;5.43;;;4.90;99.90;;;;;;4955549;28;20031;-51
2024/02/29 04:27:36;;;;;;;15.20;6.82;;;4.90;99.90;;;;;;4955089;29;20039;-50
2024/02/29 04:30:03;;;;;;;11.87;4.50;;;4.90;99.90;;;;;;4955626;28;20098;-50
2024/02/29 04:32:29;;;;;;;15.17;4.97;;;4.90;99.90;;;;;;4955384;28;20047;-50
2024/02/29 04:34:54;;;;;;;12.37;4.90;;;4.80;99.90;;;;;;4953931;28;20036;-52
2024/02/29 04:37:20;;;;;;;12.40;5.03;;;4.80;99.90;;;;;;4953383;28;20054;-53
2024/02/29 04:39:46;;;;;;;12.77;4.57;;;4.80;99.90;;;;;;4943588;28;20103;-50
2024/02/29 04:42:11;;;;;;;14.40;5.37;;;4.80;99.90;;;;;;4955828;28;20559;-52
2024/02/29 04:44:37;;;;;;;10.17;4.33;;;4.80;99.90;;;;;;4948262;28;20028;-51
2024/02/29 04:47:03;;;;;;;12.77;4.73;;;4.80;99.90;;;;;;4955611;28;20031;-54
2024/02/29 04:49:30;;;;;;;14.70;5.97;;;4.80;99.90;;;;;;4963254;28;20485;-55
2024/02/29 04:51:55;;;;;;;17.07;5.17;;;4.80;99.90;;;;;;4947440;28;20161;-52
2024/02/29 04:54:21;;;;;;;11.43;4.33;;;4.80;99.90;;;;;;4954879;28;20145;-51
2024/02/29 04:56:46;;;;;;;17.17;5.03;;;4.80;99.90;;;;;;4947976;28;20369;-50
2024/02/29 04:59:12;;;;;;;11.43;4.70;;;4.80;99.90;;;;;;4947581;28;20035;-52
2024/02/29 05:01:38;;;;;;;15.50;5.90;;;4.80;99.90;;;;;;4955543;28;20094;-52
2024/02/29 05:04:04;;;;;;;10.93;4.47;;;4.80;99.90;;;;;;4955495;28;20027;-52
2024/02/29 05:06:29;;;;;;;17.53;5.53;;;4.70;99.90;;;;;;4952474;28;20047;-54
2024/02/29 05:08:55;;;;;;;12.90;5.03;;;4.70;99.90;;;;;;4950790;28;20042;-54
2024/02/29 05:11:21;;;;;;;19.93;5.30;;;4.80;99.90;;;;;;4955286;28;20031;-50
2024/02/29 05:13:46;;;;;;;12.43;4.57;;;4.80;99.90;;;;;;4957523;28;20027;-53
2024/02/29 05:16:16;;;;;;;13.23;5.53;;;4.80;99.90;;;;;;4944543;28;20434;-50
2024/02/29 05:18:42;;;;;;;12.70;5.07;;;4.80;99.90;;;;;;4955756;28;20022;-50
2024/02/29 05:21:08;;;;;;;11.70;4.40;;;4.80;99.90;;;;;;4947557;28;20374;-50
2024/02/29 05:23:33;;;;;;;13.43;5.43;;;4.90;99.90;;;;;;4947669;28;20032;-52
2024/02/29 05:25:59;;;;;;;11.80;4.07;;;4.90;99.90;;;;;;4955496;28;20031;-53
2024/02/29 05:28:26;;;;;;;13.47;5.17;;;4.90;99.90;;;;;;4939375;28;20378;-51
2024/02/29 05:30:51;;;;;;;12.27;4.70;;;4.90;99.90;;;;;;4942473;28;20504;-51
2024/02/29 05:33:17;;;;;;;8.97;3.70;;;5.00;99.90;;;;;;4943953;28;20028;-50
2024/02/29 05:35:46;;;;;;;8.80;4.60;;;4.90;99.90;;;;;;4948153;28;20058;-49
2024/02/29 05:38:12;;;;;;;11.98;4.22;;;4.90;99.90;;;;;;4947063;28;20050;-50
2024/02/29 05:40:37;;;;;;;9.70;4.00;;;4.90;99.90;;;;;;4954844;28;20409;-51
2024/02/29 05:43:04;;;;;;;10.93;3.87;;;4.90;99.90;;;;;;4954894;28;20114;-50
2024/02/29 05:45:29;;;;;;;11.40;3.63;;;4.90;99.90;;;;;;4946499;28;20043;-50
2024/02/29 05:47:55;;;;;;;11.67;4.27;;;4.90;99.90;;;;;;4954203;28;20086;-51
2024/02/29 05:50:20;;;;;;;14.13;4.90;;;4.90;99.90;;;;;;4945418;28;20066;-51
2024/02/29 05:52:46;;;;;;;6.93;2.40;;;4.90;99.90;;;;;;4939048;28;20058;-50
2024/02/29 05:55:12;;;;;;;9.10;2.43;;;5.00;99.90;;;;;;4969236;28;20046;-53
2024/02/29 05:57:37;;;;;;;8.13;3.43;;;5.00;99.90;;;;;;4954686;28;20074;-51
2024/02/29 06:00:04;;;;;;;13.03;4.17;;;5.00;99.90;;;;;;4969542;28;20027;-54
2024/02/29 06:02:36;;;;;;;9.40;3.67;;;5.00;99.90;;;;;;4960208;28;20035;-53
2024/02/29 06:05:02;;;;;;;10.40;4.40;;;4.90;99.90;;;;;;4954724;28;20112;-51
2024/02/29 06:07:27;;;;;;;12.23;4.13;;;4.90;99.90;;;;;;4946539;28;20020;-51
2024/02/29 06:09:53;;;;;;;12.30;4.03;;;5.00;99.90;;;;;;4954083;28;20401;-52
2024/02/29 06:12:19;;;;;;;11.97;4.07;;;5.00;99.90;;;;;;4945957;28;20023;-54
2024/02/29 06:14:46;;;;;;;12.43;4.53;;;5.00;99.90;;;;;;4958294;28;20554;-53
2024/02/29 06:17:12;;;;;;;7.60;3.30;;;5.00;99.90;;;;;;4965430;28;20491;-50
2024/02/29 06:19:39;;;;;;;10.07;4.03;;;5.00;99.90;;;;;;4950869;28;20106;-54
2024/02/29 06:22:06;;;;;;;8.57;3.47;;;5.00;99.90;;;;;;4949448;28;20027;-52
2024/02/29 06:24:32;;;;;;;9.93;3.90;;;5.00;99.90;;;;;;4943633;28;20051;-54
2024/02/29 06:26:58;;;;;;;11.27;4.80;;;5.00;99.90;;;;;;4940642;28;20056;-50
2024/02/29 06:29:23;;;;;;;9.73;4.47;;;5.00;99.90;;;;;;4945930;28;20412;-52
2024/02/29 06:31:49;;;;;;;7.63;3.20;;;5.00;99.90;;;;;;4953872;28;20031;-54
2024/02/29 06:34:16;;;;;;;14.13;4.87;;;5.10;99.90;;;;;;4953874;28;20058;-51
2024/02/29 06:36:42;;;;;;;11.20;3.50;;;5.00;99.90;;;;;;4945902;28;20184;-50
2024/02/29 06:39:08;;;;;;;10.60;3.83;;;5.10;99.90;;;;;;4954362;28;20031;-51
2024/02/29 06:41:38;;;;;;;12.20;4.70;;;5.10;99.90;;;;;;4950652;28;20089;-51
2024/02/29 06:44:06;;;;;;;11.70;4.40;;;5.10;99.90;;;;;;4950259;28;20034;-52
2024/02/29 06:46:32;;;;;;;12.70;4.20;;;5.20;99.90;;;;;;4945568;28;20509;-50
2024/02/29 06:48:59;;;;;;;16.07;5.47;;;5.20;99.90;;;;;;4948551;28;20569;-50
2024/02/29 06:51:24;;;;;;;11.27;4.13;;;5.20;99.90;;;;;;4942377;28;20039;-54
2024/02/29 06:53:50;;;;;;;11.03;4.07;;;5.30;99.90;;;;;;4942849;28;20032;-52
2024/02/29 06:56:15;;;;;;;10.23;4.50;;;5.40;99.90;;;;;;4942232;28;20043;-53
2024/02/29 06:58:42;;;;;;;9.67;4.30;;;5.40;99.90;;;;;;4934551;28;20028;-52
2024/02/29 07:01:08;;;;;;;13.87;4.30;;;5.50;99.90;;;;;;4943699;28;20460;-52
2024/02/29 07:03:34;;;;;;;12.03;4.83;;;5.40;99.90;;;;;;4941948;28;20453;-52
2024/02/29 07:06:00;;;;;;;15.27;4.60;;;5.50;99.90;;;;;;4934106;28;20024;-53
2024/02/29 07:08:25;;;;;;;10.63;4.27;;;5.50;99.90;;;;;;4935039;28;20453;-57
2024/02/29 07:10:51;;;;;;;11.33;4.47;;;5.60;99.90;;;;;;4945300;28;20070;-51
2024/02/29 07:13:17;;;;;;;7.27;3.43;;;5.60;99.90;;;;;;4953239;28;20042;-52
2024/02/29 07:15:42;;;;;;;12.40;4.37;;;5.60;99.90;;;;;;4945123;28;20062;-51
2024/02/29 07:18:10;;;;;;;12.47;4.27;;;5.60;99.90;;;;;;4953020;28;20035;-53
2024/02/29 07:20:36;;;;;;;11.63;4.50;;;5.70;99.90;;;;;;4950340;28;20031;-54
2024/02/29 07:23:02;;;;;;;10.77;3.03;;;5.70;99.90;;;;;;4934162;28;20406;-52
2024/02/29 07:25:27;;;;;;;12.60;4.87;;;5.80;99.90;;;;;;4933906;28;20162;-53
2024/02/29 07:27:54;;;;;;;10.03;4.03;;;5.90;99.90;;;;;;4934122;28;20456;-50
2024/02/29 07:30:21;;;;;;;12.70;4.73;;;6.00;99.90;;;;;;4941429;28;20468;-50
2024/02/29 07:32:47;;;;;;;12.80;4.60;;;6.10;99.90;;;;;;4934078;28;20122;-51
2024/02/29 07:35:17;;;;;;;11.07;4.23;;;6.20;99.90;;;;;;4933758;28;20462;-51
2024/02/29 07:37:44;;;;;;;12.97;3.80;;;6.30;99.90;;;;;;4933906;28;20033;-50
2024/02/29 07:40:10;;;;;;;13.77;4.53;;;6.40;99.90;;;;;;4933918;28;20488;-50
2024/02/29 07:42:38;;;;;;;10.17;3.90;;;6.60;99.90;;;;;;4933632;28;20028;-50
2024/02/29 07:45:06;;;;;;;10.98;4.22;;;6.70;99.90;;;;;;4933491;28;20039;-53
2024/02/29 07:47:32;;;;;;;10.83;4.70;;;6.90;99.90;;;;;;4935127;28;20039;-50
2024/02/29 07:49:58;;;;;;;11.80;4.93;;;7.20;99.90;;;;;;4952479;28;20046;-50
2024/02/29 07:52:23;;;;;;;13.03;4.73;;;7.30;99.90;;;;;;4951847;28;20122;-51
2024/02/29 07:54:49;;;;;;;10.43;3.37;;;7.30;99.90;;;;;;4933086;28;20499;-52
2024/02/29 07:57:15;;;;;;;14.87;4.80;;;7.40;99.90;;;;;;4948437;28;20067;-54
2024/02/29 07:59:41;;;;;;;11.90;4.17;;;7.20;99.90;;;;;;4949855;28;20145;-51
2024/02/29 08:02:06;;;;;;;11.53;5.03;;;7.10;99.90;;;;;;4947215;28;20027;-52
2024/02/29 08:04:32;;;;;;;10.47;3.93;;;7.10;99.90;;;;;;4950896;28;20043;-51
2024/02/29 08:06:58;;;;;;;9.23;3.90;;;7.20;99.90;;;;;;4947376;28;20079;-52
2024/02/29 08:09:24;;;;;;;8.47;3.53;;;7.30;99.90;;;;;;4948980;28;20495;-52
2024/02/29 08:11:50;;;;;;;10.50;3.67;;;7.30;99.90;;;;;;4944847;28;20118;-52
2024/02/29 08:14:15;;;;;;;6.50;2.67;;;7.40;99.90;;;;;;4937566;28;20123;-51
2024/02/29 08:16:41;;;;;;;10.87;5.00;;;7.50;99.90;;;;;;4943295;28;20031;-50
2024/02/29 08:19:07;;;;;;;11.03;4.70;;;7.50;99.90;;;;;;4958261;28;20034;-51
2024/02/29 08:21:32;;;;;;;13.00;4.37;;;7.50;99.90;;;;;;4960815;28;20081;-51
2024/02/29 08:23:59;;;;;;;12.07;4.83;;;7.70;99.90;;;;;;4945701;28;20030;-50
2024/02/29 08:26:25;;;;;;;11.10;4.50;;;7.70;99.90;;;;;;4936113;28;20055;-51
2024/02/29 08:28:51;;;;;;;9.67;3.63;;;7.90;99.90;;;;;;4952361;28;20082;-50
2024/02/29 08:31:17;;;;;;;11.93;4.83;;;8.10;99.90;;;;;;4936934;28;20399;-52
2024/02/29 08:33:43;;;;;;;11.00;4.97;;;8.10;99.90;;;;;;4951348;28;20035;-51
2024/02/29 08:36:10;;;;;;;10.30;4.03;;;8.10;99.90;;;;;;4951752;28;20035;-50
2024/02/29 08:38:37;;;;;;;10.00;4.13;;;8.10;99.90;;;;;;4952177;28;20532;-50
2024/02/29 08:41:04;;;;;;;10.33;4.30;;;8.10;99.90;;;;;;4951984;28;20106;-51
2024/02/29 08:43:30;;;;;;;9.23;4.07;;;8.10;99.90;;;;;;4952123;28;20027;-52
2024/02/29 08:45:56;;;;;;;9.70;3.57;;;8.20;99.90;;;;;;4955954;28;20129;-52
2024/02/29 08:48:21;;;;;;;12.17;5.00;;;8.10;99.90;;;;;;4955914;28;20121;-53
2024/02/29 08:50:47;;;;;;;10.23;4.17;;;8.10;99.90;;;;;;4951640;28;20027;-52
2024/02/29 08:53:13;;;;;;;9.30;4.17;;;8.30;99.90;;;;;;4952164;28;20031;-51
2024/02/29 08:55:38;;;;;;;12.93;5.07;;;8.40;99.90;;;;;;4936195;28;20123;-51
2024/02/29 08:58:04;;;;;;;9.30;3.67;;;8.50;99.90;;;;;;4951960;28;20118;-49
2024/02/29 09:00:30;;;;;;;10.00;3.73;;;8.60;99.90;;;;;;4949918;28;20034;-50
2024/02/29 09:02:56;;;;;;;9.37;3.57;;;8.60;99.90;;;;;;4936571;28;20023;-50
2024/02/29 09:05:22;;;;;;;13.50;4.87;;;8.70;99.90;;;;;;4943713;28;20527;-49
2024/02/29 09:07:48;;;;;;;10.40;4.70;;;8.90;99.90;;;;;;4940925;28;20426;-50
2024/02/29 09:10:14;;;;;;;12.07;4.67;;;8.90;99.90;;;;;;4938756;28;20050;-52
2024/02/29 09:12:40;;;;;;;9.87;3.87;;;9.00;99.90;;;;;;4943520;28;20031;-49
2024/02/29 09:15:06;;;;;;;5.97;2.90;;;9.10;99.90;;;;;;4951411;28;20050;-53
2024/02/29 09:17:32;;;;;;;10.00;4.33;;;9.10;99.90;;;;;;4951099;28;20020;-50
2024/02/29 09:19:57;;;;;;;8.60;3.27;;;9.10;99.90;;;;;;4944083;28;20345;-49
2024/02/29 09:22:23;;;;;;;10.13;3.30;;;9.00;99.90;;;;;;4958825;28;20027;-49
2024/02/29 09:24:48;;;;;;;8.60;3.50;;;9.00;99.90;;;;;;4954932;28;20440;-49
2024/02/29 09:27:14;;;;;;;7.10;3.30;;;9.00;99.90;;;;;;4955347;28;20401;-50
2024/02/29 09:29:41;;;;;;;8.37;3.23;;;9.00;99.90;;;;;;4945414;28;20039;-51
2024/02/29 09:32:07;;;;;;;9.20;3.70;;;9.20;99.90;;;;;;4940876;28;20064;-50
2024/02/29 09:34:34;;;;;;;10.10;3.87;;;9.40;99.90;;;;;;4946280;28;20032;-52
2024/02/29 09:37:00;;;;;;;7.17;3.50;;;9.50;99.90;;;;;;4939814;28;20038;-50
2024/02/29 09:39:26;;;;;;;7.83;3.60;;;9.50;99.90;;;;;;4954777;28;20059;-53
2024/02/29 09:41:53;;;;;;;10.93;3.63;;;9.40;99.90;;;;;;4951702;28;20078;-49
2024/02/29 09:44:19;;;;;;;7.07;3.67;;;9.40;99.90;;;;;;4950119;28;20106;-49
2024/02/29 09:46:46;;;;;;;8.63;3.50;;;9.30;99.90;;;;;;4945009;28;20464;-50
2024/02/29 09:49:13;;;;;;;8.00;3.77;;;9.10;99.90;;;;;;4943949;28;20078;-50
2024/02/29 09:51:40;;;;;;;7.83;3.13;;;9.00;99.90;;;;;;4951065;28;20035;-50
2024/02/29 09:54:09;;;;;;;12.40;3.93;;;8.90;99.90;;;;;;4939219;28;20050;-49
2024/02/29 09:56:34;;;;;;;8.97;2.67;;;9.00;99.90;;;;;;4954449;28;20039;-51
2024/02/29 09:59:01;;;;;;;9.10;4.03;;;8.90;99.90;;;;;;4942945;28;20436;-49
2024/02/29 10:01:29;;;;;;;11.13;4.90;;;8.90;99.90;;;;;;4942534;28;20397;-50
2024/02/29 10:03:56;;;;;;;9.47;3.93;;;9.00;99.90;;;;;;4946699;28;20035;-49
2024/02/29 10:06:22;;;;;;;8.33;3.57;;;8.90;99.90;;;;;;4961340;28;20038;-50
2024/02/29 10:08:50;;;;;;;7.10;3.27;;;9.00;99.90;;;;;;4956078;28;20466;-50
2024/02/29 10:11:15;;;;;;;9.20;3.37;;;9.10;99.90;;;;;;4954367;28;20118;-52
2024/02/29 10:13:41;;;;;;;9.87;3.57;;;9.00;99.90;;;;;;4945316;28;20114;-49
2024/02/29 10:16:08;;;;;;;8.90;3.40;;;9.00;99.90;;;;;;4948275;28;20087;-54
2024/02/29 10:18:35;;;;;;;6.87;3.33;;;8.90;99.90;;;;;;4947568;28;20139;-54
2024/02/29 10:21:02;;;;;;;7.90;3.30;;;9.00;99.90;;;;;;4936342;28;20517;-51
2024/02/29 10:23:30;;;;;;;9.20;3.70;;;9.10;99.90;;;;;;4952417;28;20035;-50
2024/02/29 10:25:55;;;;;;;7.20;3.30;;;9.00;99.90;;;;;;4956464;28;20408;-51
2024/02/29 10:28:21;;;;;;;10.00;3.30;;;9.10;99.90;;;;;;4955755;28;20089;-51
2024/02/29 10:30:52;;;;;;;5.73;2.23;;;9.10;99.90;;;;;;4946887;28;20465;-49
2024/02/29 10:33:17;;;;;;;10.90;3.87;;;9.20;99.90;;;;;;4946356;28;20035;-49
2024/02/29 10:35:43;;;;;;;7.83;3.23;;;9.20;99.90;;;;;;4945479;28;20330;-50
2024/02/29 10:38:09;;;;;;;5.93;2.60;;;9.20;99.90;;;;;;4946061;28;20027;-50
2024/02/29 10:40:34;;;;;;;9.13;3.33;;;9.20;99.90;;;;;;4945567;28;20031;-49
2024/02/29 10:43:02;;;;;;;5.13;2.73;;;9.20;99.90;;;;;;4949761;28;20022;-50
2024/02/29 10:45:29;;;;;;;9.20;3.70;;;9.30;99.90;;;;;;4957746;28;20519;-53
2024/02/29 10:48:11;;;;;;;8.37;2.87;;;9.30;99.90;;;;;;4953685;28;20031;-50
2024/02/29 10:50:58;;;;;;;10.07;3.33;;;9.40;99.90;;;;;;4944020;28;20647;-52
2024/02/29 10:53:27;;;;;;;7.97;3.07;;;9.60;99.90;;;;;;4949002;28;20062;-50
2024/02/29 10:56:02;;;;;;;8.47;2.80;;;9.80;99.90;;;;;;4951011;28;20062;-49
2024/02/29 10:58:40;;;;;;;9.77;3.10;;;9.80;99.90;;;;;;4949139;28;20036;-49
2024/02/29 11:01:06;;;;;;;9.47;3.50;;;9.80;99.90;;;;;;4945433;28;20485;-50
2024/02/29 11:03:32;;;;;;;7.40;3.23;;;9.70;99.90;;;;;;4953418;28;20110;-49
2024/02/29 11:05:59;;;;;;;6.93;2.90;;;9.80;99.90;;;;;;4942418;28;20020;-50
2024/02/29 11:08:25;;;;;;;6.70;3.30;;;9.80;99.90;;;;;;4948465;28;20043;-54
2024/02/29 11:10:55;;;;;;;7.57;3.27;;;9.80;99.90;;;;;;4952503;28;20470;-50
2024/02/29 11:13:21;;;;;;;;;;;9.70;99.90;;;;;;4944437;28;20046;-49
2024/02/29 11:15:50;;;;;;;7.20;2.97;;;9.80;99.90;;;;;;4944982;28;19950;-48
2024/02/29 11:18:21;;;;;;;7.43;2.97;;;9.80;99.90;;;;;;4947980;28;20449;-49
2024/02/29 11:20:46;;;;;;;6.23;2.50;;;9.90;99.90;;;;;;4951676;28;20093;-50
2024/02/29 11:23:14;;;;;;;9.30;3.77;;;10.00;99.90;;;;;;4959645;28;20468;-50
2024/02/29 11:25:43;;;;;;;6.77;3.00;;;10.10;99.90;;;;;;4951144;28;20042;-50
2024/02/29 11:28:10;;;;;;;5.43;2.08;;;10.20;99.90;;;;;;4953009;28;20062;-49
2024/02/29 11:30:36;;;;;;;8.60;2.87;;;10.20;99.90;;;;;;4945097;28;20123;-48
2024/02/29 11:33:09;;;;;;;7.50;2.90;;;10.20;99.90;;;;;;4952357;28;20147;-48
2024/02/29 11:35:35;;;;;;;7.97;3.20;;;10.20;99.90;;;;;;4937303;28;20053;-49
2024/02/29 11:38:02;;;;;;;6.20;2.70;;;10.20;99.90;;;;;;4944248;28;20131;-50
2024/02/29 11:40:32;;;;;;;7.53;3.17;;;10.30;99.90;;;;;;4952464;28;20042;-52
2024/02/29 11:43:01;;;;;;;5.80;2.30;;;10.20;99.90;;;;;;4944691;28;20032;-50
2024/02/29 11:45:27;;;;;;;5.28;2.33;;;10.30;99.90;;;;;;4960162;28;20047;-49
2024/02/29 11:47:53;;;;;;;8.20;3.37;;;10.20;99.90;;;;;;4952041;28;20158;-50
2024/02/29 11:50:19;;;;;;;5.53;2.20;;;10.30;99.90;;;;;;4952226;28;20058;-51
2024/02/29 11:52:44;;;;;;;5.90;2.70;;;10.40;99.90;;;;;;4943916;28;20042;-51
2024/02/29 11:55:10;;;;;;;7.37;2.77;;;10.40;99.90;;;;;;4949035;28;20039;-49
2024/02/29 11:57:36;;;;;;;8.90;2.60;;;10.50;99.90;;;;;;4941305;28;20032;-51
2024/02/29 12:00:04;;;;;;;6.10;2.63;;;10.50;99.90;;;;;;4948817;28;20058;-48
2024/02/29 12:02:30;;;;;;;6.30;2.65;;;10.50;99.90;;;;;;4939698;28;20037;-49
2024/02/29 12:04:56;;;;;;;7.93;2.07;;;10.60;99.90;;;;;;4950915;28;20182;-49
2024/02/29 12:07:24;;;;;;;7.00;2.67;;;10.60;99.90;;;;;;4952078;28;20042;-50
2024/02/29 12:09:50;;;;;;;7.40;3.10;;;10.60;99.90;;;;;;4949270;28;20070;-50
2024/02/29 12:12:16;;;;;;;6.27;2.70;;;10.60;99.90;;;;;;4945371;28;20441;-52
2024/02/29 12:14:42;;;;;;;7.50;2.57;;;10.60;99.90;;;;;;4951898;28;20081;-52
2024/02/29 12:17:08;;;;;;;6.87;2.57;;;10.70;99.90;;;;;;4944536;28;20043;-50
2024/02/29 12:19:34;;;;;;;8.47;2.37;;;10.80;99.90;;;;;;4952156;28;20463;-51
2024/02/29 12:22:00;;;;;;;5.47;2.43;;;10.90;99.90;;;;;;4944146;28;20122;-51
2024/02/29 12:24:26;;;;;;;5.57;2.27;;;11.00;99.90;;;;;;4951951;28;20111;-54
2024/02/29 12:26:52;;;;;;;8.20;2.60;;;11.10;99.90;;;;;;4944162;28;20513;-50
2024/02/29 12:29:17;;;;;;;5.63;2.50;;;11.30;99.90;;;;;;4952295;28;20055;-50
2024/02/29 12:31:44;;;;;;;5.97;2.90;;;11.30;99.90;;;;;;4952348;28;20133;-50
2024/02/29 12:34:09;;;;;;;6.10;2.90;;;11.30;99.90;;;;;;4948581;28;20374;-49
2024/02/29 12:36:35;;;;;;;6.30;2.70;;;11.30;99.90;;;;;;4939563;28;20138;-49
2024/02/29 12:39:01;;;;;;;7.03;2.63;;;11.40;99.90;;;;;;4935966;28;20043;-49
2024/02/29 12:41:27;;;;;;;4.93;2.47;;;11.50;99.90;;;;;;4951690;28;20030;-53
2024/02/29 12:43:55;;;;;;;6.77;3.47;;;11.50;99.90;;;;;;4943882;28;20028;-51
2024/02/29 12:46:22;;;;;;;5.05;2.33;;;11.50;99.90;;;;;;4956691;28;20112;-50